Time;durP1;ratioP1;P1;durP2;ratioP2;P2;SDS_P1;SDS_P2;PMS_P1;PMS_P2;Temp;Humidity;BMP_temperature;BMP_pressure;BME280_temperature;BME280_humidity;BME280_pressure;Samples;Min_cycle;Max_cycle;Signal;HPM_P1;HPM_P2
2022/11/07 00:01:27;;;;;;;;;3.33;2.33;;;;;12.36;85.86;100568.63;5076364;27;45544;-58
2022/11/07 00:03:53;;;;;;;;;2.00;2.00;;;;;12.39;86.30;100567.59;5077247;28;45743;-63
2022/11/07 00:06:19;;;;;;;;;3.67;2.00;;;;;12.39;86.06;100559.59;5076389;28;45391;-62
2022/11/07 00:08:44;;;;;;;;;7.00;2.33;;;;;12.40;86.07;100563.97;5072398;27;45446;-65
2022/11/07 00:11:10;;;;;;;;;3.67;2.33;;;;;12.42;86.04;100563.88;5057226;28;46106;-64
2022/11/07 00:13:35;;;;;;;;;2.33;1.67;;;;;12.40;85.98;100567.50;5056988;28;45355;-59
2022/11/07 00:16:03;;;;;;;;;8.67;3.00;;;;;12.42;86.13;100561.19;5057545;28;45251;-59
2022/11/07 00:18:29;;;;;;;;;4.00;2.33;;;;;12.42;85.72;100561.19;5059734;28;45235;-61
2022/11/07 00:20:55;;;;;;;;;2.33;1.00;;;;;12.47;85.86;100567.94;5073447;27;45641;-61
2022/11/07 00:23:20;;;;;;;;;2.67;2.67;;;;;12.49;86.00;100570.50;5075618;27;45292;-60
2022/11/07 00:25:46;;;;;;;;;7.33;2.00;;;;;12.49;85.34;100578.50;5071420;28;45379;-60
2022/11/07 00:28:11;;;;;;;;;3.67;3.67;;;;;12.51;85.74;100576.63;5039699;28;45327;-60
2022/11/07 00:30:36;;;;;;;;;2.00;1.00;;;;;12.44;85.44;100560.13;5042838;28;47716;-60
2022/11/07 00:33:03;;;;;;;;;5.33;2.00;;;;;12.52;85.95;100571.19;5076204;28;45449;-58
2022/11/07 00:35:28;;;;;;;;;3.00;1.33;;;;;12.51;84.84;100565.97;5062087;28;45374;-62
2022/11/07 00:37:55;;;;;;;;;4.67;2.33;;;;;12.49;85.53;100562.50;5076040;28;45485;-62
2022/11/07 00:40:20;;;;;;;;;6.33;3.67;;;;;12.55;85.31;100564.78;5078492;27;45345;-65
2022/11/07 00:42:46;;;;;;;;;4.00;2.00;;;;;12.46;85.64;100558.22;5083211;27;45449;-63
2022/11/07 00:45:12;;;;;;;;;8.00;3.33;;;;;12.52;85.53;100571.19;5079198;28;45400;-63
2022/11/07 00:47:37;;;;;;;;;4.00;2.33;;;;;12.53;85.66;100570.22;5073115;28;45417;-63
2022/11/07 00:50:03;;;;;;;;;1.33;1.33;;;;;12.50;85.30;100561.53;5081413;27;46515;-62
2022/11/07 00:52:29;;;;;;;;;3.00;1.00;;;;;12.52;85.43;100557.00;5091427;27;45405;-62
2022/11/07 00:54:54;;;;;;;;;2.67;2.00;;;;;12.51;85.43;100558.81;5080705;28;45445;-58
2022/11/07 00:57:20;;;;;;;;;1.67;0.00;;;;;12.55;85.21;100570.13;5108051;27;45589;-62
2022/11/07 00:59:45;;;;;;;;;9.33;3.00;;;;;12.58;85.30;100562.78;5071379;27;46915;-59
2022/11/07 01:02:11;;;;;;;;;2.67;2.33;;;;;12.60;84.77;100565.34;5060136;28;45401;-62
2022/11/07 01:07:20;;;;;;;;;7.67;2.33;;;;;12.57;85.27;100553.06;5074403;27;45523;-60
2022/11/07 01:09:45;;;;;;;;;2.00;2.00;;;;;12.64;85.14;100567.72;5096075;27;45425;-60
2022/11/07 01:12:11;;;;;;;;;8.00;2.33;;;;;12.63;85.04;100565.13;5081997;27;46059;-60
2022/11/07 01:14:41;;;;;;;;;2.33;2.00;;;;;12.67;84.83;100564.00;5079244;27;45378;-60
2022/11/07 01:17:07;;;;;;;;;3.67;2.00;;;;;12.69;84.53;100570.94;5041776;28;45467;-59
2022/11/07 01:19:32;;;;;;;;;1.00;1.00;;;;;12.64;84.67;100566.88;5061315;27;46857;-62
2022/11/07 01:21:57;;;;;;;;;7.67;1.33;;;;;12.70;84.64;100583.31;5089839;27;45405;-61
2022/11/07 01:24:23;;;;;;;;;4.00;3.00;;;;;12.67;84.68;100567.53;5099823;27;45295;-60
2022/11/07 01:26:48;;;;;;;;;2.00;2.00;;;;;12.74;84.69;100573.28;5093737;27;45299;-60
2022/11/07 01:29:15;;;;;;;;;1.33;1.33;;;;;12.70;84.27;100571.78;5099824;27;45993;-64
2022/11/07 01:31:40;;;;;;;;;2.67;2.00;;;;;12.78;84.48;100574.84;5100015;27;45499;-61
2022/11/07 01:34:06;;;;;;;;;0.67;0.67;;;;;12.81;84.73;100573.78;5083174;27;45392;-60
2022/11/07 01:36:32;;;;;;;;;3.33;1.00;;;;;12.82;84.58;100571.00;5073157;28;45425;-61
2022/11/07 01:38:57;;;;;;;;;5.33;2.00;;;;;12.83;84.34;100575.38;5078951;27;45370;-61
2022/11/07 01:41:26;;;;;;;;;3.00;1.00;;;;;12.84;84.42;100574.41;5072344;27;45327;-61
2022/11/07 01:44:05;;;;;;;;;1.00;1.00;;;;;12.84;84.38;100574.41;5060844;27;45268;-62
2022/11/07 01:46:39;;;;;;;;;0.67;0.67;;;;;12.84;84.39;100562.88;5079349;28;45348;-61
2022/11/07 01:49:16;;;;;;;;;2.67;2.00;;;;;12.90;84.16;100568.69;5060148;28;46976;-59
2022/11/07 01:51:49;;;;;;;;;2.00;1.00;;;;;12.90;83.84;100568.69;5077897;27;45392;-65
2022/11/07 01:54:20;;;;;;;;;3.00;1.67;;;;;12.88;83.59;100570.56;5077974;28;45381;-62
2022/11/07 01:56:47;;;;;;;;;1.67;1.00;;;;;12.86;83.83;100572.50;5066765;27;45490;-59
2022/11/07 01:59:17;;;;;;;;;1.67;1.33;;;;;12.90;83.92;100565.16;5095888;27;46501;-58
2022/11/07 02:01:42;;;;;;;;;5.33;3.00;;;;;12.90;83.89;100579.38;5074083;27;45351;-59
2022/11/07 02:04:09;;;;;;;;;4.00;1.00;;;;;12.92;84.15;100580.13;5090129;27;45545;-62
2022/11/07 02:06:43;;;;;;;;;2.00;2.00;;;;;12.89;84.48;100572.31;5070095;27;45288;-64
2022/11/07 02:09:09;;;;;;;;;2.00;1.00;;;;;12.89;83.82;100577.66;5074010;28;46418;-62
2022/11/07 02:11:35;;;;;;;;;4.67;2.67;;;;;12.89;83.58;100579.44;5081300;27;45443;-58
2022/11/07 02:14:00;;;;;;;;;1.67;1.67;;;;;12.90;84.07;100590.03;5095786;27;45406;-63
2022/11/07 02:16:26;;;;;;;;;3.67;1.00;;;;;12.86;84.35;100577.84;5066872;28;45603;-64
2022/11/07 02:18:55;;;;;;;;;3.33;2.00;;;;;12.84;84.05;100585.09;5096692;27;45308;-60
2022/11/07 02:21:33;;;;;;;;;5.00;3.00;;;;;12.86;84.28;100588.50;5098426;27;45525;-60
2022/11/07 02:24:07;;;;;;;;;2.00;2.00;;;;;12.87;83.91;100594.69;5074237;27;45408;-60
2022/11/07 02:26:36;;;;;;;;;3.67;1.00;;;;;12.79;84.45;100576.53;5076736;28;45454;-58
2022/11/07 02:29:06;;;;;;;;;4.67;2.33;;;;;12.84;84.04;100585.09;5077739;28;45726;-63
2022/11/07 02:31:31;;;;;;;;;3.00;3.00;;;;;12.92;84.14;100592.59;5077851;28;45371;-60
2022/11/07 02:33:56;;;;;;;;;2.00;2.00;;;;;12.86;83.57;100591.19;5077202;27;45362;-60
2022/11/07 02:36:23;;;;;;;;;1.33;1.33;;;;;12.86;84.45;100575.16;5077549;28;45437;-61
2022/11/07 02:38:56;;;;;;;;;3.33;2.00;;;;;12.91;83.22;100591.75;5082156;27;46554;-59
2022/11/07 02:41:30;;;;;;;;;1.67;1.67;;;;;12.88;83.79;100575.06;5076080;28;45410;-58
2022/11/07 02:44:07;;;;;;;;;1.33;1.33;;;;;12.93;83.70;100578.31;5041061;28;46263;-59
2022/11/07 02:46:32;;;;;;;;;1.00;1.00;;;;;12.91;83.96;100585.56;5058086;28;45356;-62
2022/11/07 02:49:00;;;;;;;;;1.67;1.67;;;;;12.90;83.49;100576.69;5039610;28;46917;-60
2022/11/07 02:51:26;;;;;;;;;1.33;1.33;;;;;12.84;83.02;100578.91;5040265;28;45607;-63
2022/11/07 02:53:52;;;;;;;;;1.67;1.67;;;;;12.89;83.47;100577.66;5059828;28;45464;-62
2022/11/07 02:56:18;;;;;;;;;2.00;2.00;;;;;12.87;82.82;100558.19;5078644;27;45394;-63
2022/11/07 02:58:44;;;;;;;;;2.33;1.00;;;;;12.93;83.34;100568.47;5058608;27;45355;-63
2022/11/07 03:01:11;;;;;;;;;3.00;1.67;;;;;12.96;83.09;100572.75;5076771;28;45177;-65
2022/11/07 03:03:39;;;;;;;;;2.67;2.67;;;;;12.96;83.29;100573.59;5043487;28;45494;-61
2022/11/07 03:06:06;;;;;;;;;8.67;1.00;;;;;12.93;83.03;100573.81;5077257;27;45393;-62
2022/11/07 03:08:32;;;;;;;;;2.33;2.00;;;;;12.92;83.05;100572.09;5058446;28;47465;-59
2022/11/07 03:10:57;;;;;;;;;7.67;2.00;;;;;12.92;83.16;100572.09;5058630;28;45346;-59
2022/11/07 03:13:23;;;;;;;;;9.33;1.00;;;;;12.93;83.04;100571.16;5077232;27;45449;-59
2022/11/07 03:15:49;;;;;;;;;4.00;2.67;;;;;12.91;82.53;100569.53;5072666;28;45342;-62
2022/11/07 03:18:15;;;;;;;;;4.33;1.67;;;;;12.94;82.65;100586.22;5064079;28;45208;-61
2022/11/07 03:20:41;;;;;;;;;2.00;2.00;;;;;12.96;82.79;100586.09;5075471;27;45470;-62
2022/11/07 03:23:06;;;;;;;;;3.33;2.33;;;;;12.96;83.14;100594.09;5077275;28;45342;-64
2022/11/07 03:25:31;;;;;;;;;8.33;3.00;;;;;12.94;82.82;100598.69;5077459;28;45409;-64
2022/11/07 03:27:57;;;;;;;;;2.00;2.00;;;;;12.93;81.90;100595.16;5059835;28;45619;-62
2022/11/07 03:30:22;;;;;;;;;2.00;2.00;;;;;12.92;83.00;100593.47;5080759;27;45227;-60
2022/11/07 03:32:51;;;;;;;;;3.67;1.00;;;;;12.94;82.74;100596.03;5077170;28;45520;-59
2022/11/07 03:35:16;;;;;;;;;3.00;2.00;;;;;12.94;83.15;100596.03;5076509;28;45638;-61
2022/11/07 03:37:45;;;;;;;;;1.00;1.00;;;;;12.94;82.35;100593.34;5076791;28;46231;-59
2022/11/07 03:40:12;;;;;;;;;3.00;1.00;;;;;12.94;83.15;100596.03;5077015;28;45355;-63
2022/11/07 03:42:39;;;;;;;;;1.67;1.67;;;;;12.91;82.69;100578.41;5076375;27;45905;-60
2022/11/07 03:45:06;;;;;;;;;2.00;2.00;;;;;12.93;83.22;100579.16;5077404;28;45362;-62
2022/11/07 03:47:39;;;;;;;;;1.00;1.00;;;;;12.96;82.70;100586.09;5056774;28;47901;-61
2022/11/07 03:50:07;;;;;;;;;3.67;2.00;;;;;12.97;82.84;100577.13;5051012;28;45494;-59
2022/11/07 03:52:32;;;;;;;;;2.00;2.00;;;;;12.97;83.16;100577.97;5065412;28;45277;-64
2022/11/07 03:54:57;;;;;;;;;2.33;2.33;;;;;12.97;83.13;100569.13;5077706;28;45560;-61
2022/11/07 03:57:23;;;;;;;;;1.33;1.33;;;;;12.96;83.40;100578.94;5077457;28;45361;-62
2022/11/07 03:59:48;;;;;;;;;3.67;2.00;;;;;12.97;82.84;100575.31;5076974;28;45326;-61
2022/11/07 04:02:14;;;;;;;;;3.33;2.00;;;;;12.91;83.59;100559.72;5073266;27;45277;-60
2022/11/07 04:04:39;;;;;;;;;1.33;1.33;;;;;12.97;83.05;100569.97;5076877;28;45407;-59
2022/11/07 04:07:04;;;;;;;;;8.33;2.33;;;;;12.92;83.12;100557.91;5074620;28;47006;-58
2022/11/07 04:09:30;;;;;;;;;5.33;3.00;;;;;12.87;83.46;100552.84;5057110;28;45319;-59
2022/11/07 04:17:24;;;;;;;;;2.33;2.00;;;;;12.97;83.46;100567.31;5075806;28;45338;-59
2022/11/07 04:19:53;;;;;;;;;0.00;0.00;;;;;12.97;83.77;100571.78;5056069;28;45447;-60
2022/11/07 04:22:19;;;;;;;;;1.33;1.33;;;;;12.95;83.54;100571.03;5055930;28;45426;-59
2022/11/07 04:24:45;;;;;;;;;3.00;2.00;;;;;12.90;82.81;100567.84;5056667;28;45588;-61
2022/11/07 04:29:55;;;;;;;;;4.33;2.00;;;;;12.98;83.88;100566.34;5076836;28;45458;-59
2022/11/07 04:32:22;;;;;;;;;4.33;2.00;;;;;12.95;83.14;100577.22;5074892;28;45315;-59
2022/11/07 04:34:47;;;;;;;;;1.00;1.00;;;;;12.96;83.83;100581.63;5076342;28;45351;-58
2022/11/07 04:37:13;;;;;;;;;3.33;2.33;;;;;12.93;83.71;100579.16;5076118;28;47085;-63
2022/11/07 04:39:38;;;;;;;;;4.00;1.33;;;;;12.94;83.38;100575.53;5076305;28;45230;-61
2022/11/07 04:42:03;;;;;;;;;6.33;1.00;;;;;12.98;83.74;100586.84;5073667;28;45507;-60
2022/11/07 04:44:29;;;;;;;;;1.00;1.00;;;;;12.95;83.54;100574.56;5076868;28;45255;-59
2022/11/07 04:46:54;;;;;;;;;10.33;2.67;;;;;12.99;83.50;100586.75;5076781;28;46091;-62
2022/11/07 04:49:20;;;;;;;;;5.00;2.00;;;;;13.01;83.22;100581.31;5076257;28;45335;-59
2022/11/07 04:51:45;;;;;;;;;2.00;2.00;;;;;13.02;83.25;100577.69;5076320;28;45289;-62
2022/11/07 04:54:14;;;;;;;;;2.00;1.00;;;;;13.05;83.78;100584.66;5058329;28;45325;-65
2022/11/07 04:56:40;;;;;;;;;4.33;0.67;;;;;13.05;83.35;100581.97;5051698;28;46063;-61
2022/11/07 04:59:06;;;;;;;;;4.67;1.33;;;;;13.05;83.82;100579.31;5070324;28;45449;-64
2022/11/07 05:01:32;;;;;;;;;6.33;3.67;;;;;13.09;83.56;100578.13;5076150;28;45442;-61
2022/11/07 05:03:57;;;;;;;;;5.00;1.00;;;;;13.08;83.50;100576.44;5076699;28;45306;-58
2022/11/07 05:06:23;;;;;;;;;5.67;2.67;;;;;13.06;83.37;100573.88;5074883;28;46289;-61
2022/11/07 05:08:49;;;;;;;;;2.67;2.00;;;;;13.08;83.34;100576.44;5076111;28;45452;-64
2022/11/07 05:11:14;;;;;;;;;4.00;1.00;;;;;13.02;83.46;100558.13;5075583;28;45415;-60
2022/11/07 05:13:40;;;;;;;;;2.33;1.00;;;;;13.08;83.41;100557.72;5076813;28;45519;-60
2022/11/07 05:16:12;;;;;;;;;3.00;2.00;;;;;13.05;83.97;100563.28;5079083;28;45302;-59
2022/11/07 05:18:38;;;;;;;;;6.67;2.00;;;;;13.06;83.64;100567.66;5080248;27;45173;-62
2022/11/07 05:21:03;;;;;;;;;4.00;1.67;;;;;13.12;83.51;100569.91;5079335;28;45184;-64
2022/11/07 05:23:29;;;;;;;;;3.67;2.00;;;;;13.11;83.07;100571.72;5078932;28;45941;-61
2022/11/07 05:25:54;;;;;;;;;1.33;1.33;;;;;13.10;83.33;100585.19;5060674;28;45764;-60
2022/11/07 05:28:28;;;;;;;;;0.00;0.00;;;;;13.14;82.81;100587.53;5079150;27;45293;-59
2022/11/07 05:30:58;;;;;;;;;2.00;2.00;;;;;13.12;83.57;100577.91;5060847;28;45205;-59
2022/11/07 05:33:24;;;;;;;;;4.33;3.00;;;;;13.18;82.79;100585.53;5075410;28;45515;-58
2022/11/07 05:35:49;;;;;;;;;5.00;2.00;;;;;13.06;82.42;100591.69;5059947;28;46259;-62
2022/11/07 05:38:15;;;;;;;;;4.67;1.67;;;;;13.17;83.65;100613.22;5073506;28;45440;-62
2022/11/07 05:40:40;;;;;;;;;2.00;1.00;;;;;13.17;83.01;100605.19;5077221;28;45597;-59
2022/11/07 05:43:08;;;;;;;;;3.00;2.00;;;;;13.21;82.68;100622.75;5079317;28;45198;-60
2022/11/07 05:45:39;;;;;;;;;4.00;3.00;;;;;13.24;82.99;100609.19;5078575;28;46182;-60
2022/11/07 05:48:07;;;;;;;;;3.00;1.00;;;;;13.24;83.38;100617.19;5077854;27;45395;-61
2022/11/07 05:50:34;;;;;;;;;3.00;1.33;;;;;13.26;83.43;100613.47;5060277;28;45275;-60
2022/11/07 05:52:59;;;;;;;;;3.00;2.00;;;;;13.31;83.20;100615.00;5079551;28;45504;-59
2022/11/07 05:55:25;;;;;;;;;3.00;1.00;;;;;13.32;83.64;100614.03;5046082;28;47945;-59
2022/11/07 05:57:51;;;;;;;;;1.00;1.00;;;;;13.30;84.63;100624.81;5058676;28;45816;-62
2022/11/07 06:00:17;;;;;;;;;3.33;1.67;;;;;13.25;87.48;100616.22;5058844;27;48489;-62
2022/11/07 06:02:44;;;;;;;;;6.33;3.67;;;;;13.23;85.57;100621.69;5064116;28;45753;-62
2022/11/07 06:05:10;;;;;;;;;1.00;1.00;;;;;13.24;85.19;100619.88;5059206;28;45526;-60
2022/11/07 06:07:37;;;;;;;;;1.33;0.33;;;;;13.26;84.17;100615.28;5061500;28;45490;-64
2022/11/07 06:10:06;;;;;;;;;1.33;1.33;;;;;13.27;83.60;100614.31;5068979;27;45400;-61
2022/11/07 06:12:32;;;;;;;;;1.00;1.00;;;;;13.26;83.26;100613.47;5077796;27;45875;-61
2022/11/07 06:14:57;;;;;;;;;4.00;1.67;;;;;13.24;83.89;100614.53;5077404;27;47663;-61
2022/11/07 06:17:23;;;;;;;;;3.67;2.33;;;;;13.26;84.00;100615.28;5079232;27;45472;-60
2022/11/07 06:19:48;;;;;;;;;2.33;1.00;;;;;13.25;83.29;100618.91;5071115;27;45503;-61
2022/11/07 06:22:13;;;;;;;;;1.00;1.00;;;;;13.24;82.76;100622.53;5072684;27;45463;-60
2022/11/07 06:24:39;;;;;;;;;5.33;2.33;;;;;13.24;83.14;100619.88;5086289;27;45617;-62
2022/11/07 06:27:04;;;;;;;;;1.00;1.00;;;;;13.18;82.91;100617.59;5092471;27;45313;-60
2022/11/07 06:29:29;;;;;;;;;4.00;1.33;;;;;13.23;82.50;100629.69;5080255;27;45459;-60
2022/11/07 06:31:55;;;;;;;;;4.00;2.00;;;;;13.24;83.21;100635.88;5078543;28;45504;-63
2022/11/07 06:34:20;;;;;;;;;5.00;2.00;;;;;13.26;82.45;100636.63;5092259;27;46765;-66
2022/11/07 06:36:45;;;;;;;;;2.67;2.00;;;;;13.27;83.45;100641.03;5080232;27;45389;-61
2022/11/07 06:39:11;;;;;;;;;4.33;1.00;;;;;13.32;83.68;100648.75;5088375;27;45406;-62
2022/11/07 06:41:36;;;;;;;;;1.00;1.00;;;;;13.33;83.35;100632.63;5075584;28;45319;-61
2022/11/07 06:44:02;;;;;;;;;1.00;1.00;;;;;13.36;83.58;100636.88;5074839;28;45963;-61
2022/11/07 06:46:27;;;;;;;;;4.00;2.00;;;;;13.39;83.33;100634.00;5075698;28;45362;-60
2022/11/07 06:48:53;;;;;;;;;17.67;13.67;;;;;13.34;83.32;100620.97;5075996;28;45327;-66
2022/11/07 06:51:18;;;;;;;;;1.33;1.00;;;;;13.40;82.62;100633.03;5076871;28;45414;-63
2022/11/07 06:53:44;;;;;;;;;3.67;2.00;;;;;13.38;83.27;100643.84;5066345;28;45235;-62
2022/11/07 06:56:13;;;;;;;;;4.00;3.00;;;;;13.38;82.71;100641.16;5057905;28;45244;-63
2022/11/07 06:58:39;;;;;;;;;2.00;1.00;;;;;13.39;83.08;100650.88;5073440;28;45399;-66
2022/11/07 07:01:08;;;;;;;;;8.00;2.33;;;;;13.45;83.42;100646.97;5069029;28;45531;-66
2022/11/07 07:03:36;;;;;;;;;1.00;1.00;;;;;13.48;82.62;100642.28;5077185;27;45623;-61
2022/11/07 07:06:04;;;;;;;;;2.00;2.00;;;;;13.52;82.53;100645.59;5063252;27;45587;-59
2022/11/07 07:08:32;;;;;;;;;2.00;1.00;;;;;13.54;83.01;100644.53;5090731;27;45445;-62
2022/11/07 07:11:07;;;;;;;;;3.67;2.00;;;;;13.57;82.46;100649.69;5078152;27;45172;-59
2022/11/07 07:13:33;;;;;;;;;5.00;1.00;;;;;13.56;82.68;100653.31;5060548;28;46257;-60
2022/11/07 07:15:58;;;;;;;;;2.00;2.00;;;;;13.62;82.61;100651.16;5069570;28;45257;-61
2022/11/07 07:18:25;;;;;;;;;8.67;3.00;;;;;13.65;82.40;100649.13;5089636;27;45416;-62
2022/11/07 07:20:51;;;;;;;;;3.00;1.67;;;;;13.65;82.65;100651.81;5070379;27;45517;-60
2022/11/07 07:23:19;;;;;;;;;3.00;2.00;;;;;13.63;82.77;100645.72;5074138;28;46364;-62
2022/11/07 07:25:45;;;;;;;;;3.00;2.00;;;;;13.73;82.52;100659.31;5075793;28;45225;-60
2022/11/07 07:28:11;;;;;;;;;2.33;2.00;;;;;13.71;82.02;100659.44;5073969;28;45382;-61
2022/11/07 07:30:37;;;;;;;;;3.00;3.00;;;;;13.70;82.56;100649.69;5058742;28;49452;-61
2022/11/07 07:33:03;;;;;;;;;3.67;2.00;;;;;13.68;81.70;100656.13;5074567;27;46775;-61
2022/11/07 07:35:28;;;;;;;;;4.00;2.33;;;;;13.69;82.90;100653.34;5046464;28;45343;-61
2022/11/07 07:37:53;;;;;;;;;2.67;2.67;;;;;13.74;82.91;100655.69;5072013;27;45681;-62
2022/11/07 07:40:22;;;;;;;;;2.00;2.00;;;;;13.78;82.90;100651.81;5057694;28;45319;-69
2022/11/07 07:42:48;;;;;;;;;2.00;2.00;;;;;13.81;82.40;100660.53;5057472;28;48054;-62
2022/11/07 07:45:15;;;;;;;;;5.33;2.00;;;;;13.80;82.35;100664.16;5055597;28;45497;-61
2022/11/07 07:47:41;;;;;;;;;2.33;2.33;;;;;13.83;82.42;100663.09;5073006;28;45465;-67
2022/11/07 07:50:08;;;;;;;;;3.00;3.00;;;;;13.91;82.51;100666.06;5070904;28;45619;-64
2022/11/07 07:52:34;;;;;;;;;4.00;2.00;;;;;13.91;81.67;100663.41;5072881;28;47255;-60
2022/11/07 07:54:59;;;;;;;;;5.33;2.00;;;;;13.95;81.41;100664.06;5076395;28;45234;-60
2022/11/07 07:57:25;;;;;;;;;3.33;3.00;;;;;13.98;81.82;100659.34;5075718;27;47636;-68
2022/11/07 07:59:50;;;;;;;;;4.00;2.00;;;;;14.04;82.15;100669.59;5071171;27;45368;-53
2022/11/07 08:02:16;;;;;;;;;3.33;2.00;;;;;14.09;81.58;100663.97;5075220;28;45993;-55
2022/11/07 08:04:42;;;;;;;;;9.00;2.67;;;;;14.11;81.48;100681.59;5075663;28;45458;-53
2022/11/07 08:07:07;;;;;;;;;2.00;2.00;;;;;14.09;80.94;100677.34;5078709;27;45410;-53
2022/11/07 08:09:36;;;;;;;;;2.00;1.00;;;;;14.12;81.62;100685.13;5076964;28;45619;-58
2022/11/07 08:12:03;;;;;;;;;1.67;1.33;;;;;14.16;80.59;100678.59;5074877;28;45889;-57
2022/11/07 08:14:28;;;;;;;;;2.33;2.00;;;;;14.23;82.41;100682.56;5057669;28;45340;-61
2022/11/07 08:16:54;;;;;;;;;2.67;2.67;;;;;14.32;80.71;100683.72;5075409;28;46075;-53
2022/11/07 08:19:19;;;;;;;;;2.67;2.00;;;;;14.49;80.71;100686.13;5076461;28;45537;-62
2022/11/07 08:21:45;;;;;;;;;8.67;2.00;;;;;14.53;80.19;100676.91;5070779;28;45575;-64
2022/11/07 08:24:10;;;;;;;;;1.00;1.00;;;;;14.70;80.36;100678.38;5056280;28;45344;-62
2022/11/07 08:26:37;;;;;;;;;6.00;3.00;;;;;14.86;79.52;100687.03;5056887;28;45261;-61
2022/11/07 08:29:03;;;;;;;;;4.67;2.00;;;;;14.88;78.58;100681.56;5058894;28;45453;-63
2022/11/07 08:31:28;;;;;;;;;2.00;2.00;;;;;14.88;77.37;100686.91;5058083;28;46275;-62
2022/11/07 08:33:57;;;;;;;;;3.00;0.00;;;;;14.93;78.47;100682.06;5074044;27;45500;-58
2022/11/07 08:36:23;;;;;;;;;1.00;1.00;;;;;14.91;78.82;100678.66;5076731;28;45207;-59
2022/11/07 08:38:48;;;;;;;;;3.33;0.00;;;;;14.94;78.49;100689.13;5071658;28;45526;-57
2022/11/07 08:41:13;;;;;;;;;4.67;3.00;;;;;14.93;78.40;100690.09;5055854;28;45911;-59
2022/11/07 08:43:39;;;;;;;;;2.33;2.33;;;;;14.98;77.48;100694.19;5056482;28;45374;-60
2022/11/07 08:46:04;;;;;;;;;9.00;3.00;;;;;15.01;76.61;100698.44;5057294;28;45302;-60
2022/11/07 08:48:30;;;;;;;;;5.00;2.00;;;;;14.97;77.53;100681.75;5056777;28;45194;-59
2022/11/07 08:50:56;;;;;;;;;5.00;2.00;;;;;15.05;76.57;100691.91;5071455;28;46269;-60
2022/11/07 08:53:24;;;;;;;;;4.00;3.33;;;;;15.10;77.55;100699.59;5080985;28;45517;-64
2022/11/07 08:55:49;;;;;;;;;3.00;1.00;;;;;14.98;77.44;100669.22;5073961;28;45438;-60
2022/11/07 08:58:15;;;;;;;;;4.33;2.33;;;;;15.08;76.98;100707.72;5059741;28;45402;-59
2022/11/07 09:00:41;;;;;;;;;2.67;2.67;;;;;15.03;76.47;100692.00;5040721;28;46463;-61
2022/11/07 09:03:07;;;;;;;;;3.00;3.00;;;;;15.03;77.55;100691.16;5059348;28;45258;-60
2022/11/07 09:05:33;;;;;;;;;3.00;1.67;;;;;14.97;76.22;100689.78;5058876;28;45299;-61
2022/11/07 09:07:59;;;;;;;;;1.67;1.67;;;;;14.95;76.10;100694.38;5067222;28;45510;-64
2022/11/07 09:10:25;;;;;;;;;5.00;5.00;;;;;14.95;77.24;100698.88;5079182;28;45302;-63
2022/11/07 09:12:51;;;;;;;;;4.00;1.00;;;;;14.93;76.99;100703.50;5078500;28;45237;-63
2022/11/07 09:15:18;;;;;;;;;5.00;2.67;;;;;14.88;77.36;100708.34;5079771;28;45418;-57
2022/11/07 09:17:45;;;;;;;;;5.67;1.00;;;;;14.86;77.62;100708.44;5079283;28;45541;-58
2022/11/07 09:20:12;;;;;;;;;2.00;1.00;;;;;14.91;77.67;100710.78;5061211;27;46264;-59
2022/11/07 09:22:37;;;;;;;;;3.00;1.00;;;;;14.92;77.71;100717.84;5092440;27;45390;-61
2022/11/07 09:25:03;;;;;;;;;4.00;2.33;;;;;14.91;77.72;100714.31;5082074;27;45460;-57
2022/11/07 09:27:29;;;;;;;;;3.33;2.00;;;;;14.92;77.21;100717.84;5080526;27;45527;-59
2022/11/07 09:29:54;;;;;;;;;3.00;1.00;;;;;14.94;77.61;100718.59;5071402;28;45829;-60
2022/11/07 09:32:22;;;;;;;;;4.00;1.00;;;;;14.97;77.47;100718.38;5058705;28;45481;-63
2022/11/07 09:34:48;;;;;;;;;2.33;2.33;;;;;14.87;77.60;100696.78;5058701;28;45473;-62
2022/11/07 09:37:13;;;;;;;;;4.67;1.67;;;;;15.10;76.21;100718.34;5060105;27;45276;-63
2022/11/07 09:39:38;;;;;;;;;1.00;1.00;;;;;15.11;77.16;100728.97;5057062;28;47608;-61
2022/11/07 09:42:46;;;;;;;;;3.67;2.00;;;;;15.17;76.83;100724.97;5060471;28;45439;-61
2022/11/07 09:45:12;;;;;;;;;2.67;2.67;;;;;15.21;76.87;100727.28;4995495;28;45463;-63
2022/11/07 09:47:54;;;;;;;;;4.00;2.00;;;;;15.31;76.77;100720.31;5049497;28;45563;-62
2022/11/07 09:50:42;;;;;;;;;2.67;2.33;;;;;15.39;76.15;100713.53;5058151;28;45414;-62
2022/11/07 09:53:21;;;;;;;;;1.67;1.00;;;;;15.45;75.75;100715.75;5040537;28;45310;-61
2022/11/07 09:55:49;;;;;;;;;4.00;2.00;;;;;15.50;75.82;100722.50;5057010;28;45360;-60
2022/11/07 09:58:28;;;;;;;;;5.33;3.00;;;;;15.51;75.51;100731.38;5078433;27;45654;-63
2022/11/07 10:00:57;;;;;;;;;3.00;2.00;;;;;15.45;75.13;100721.97;5063905;27;45250;-63
2022/11/07 10:03:22;;;;;;;;;2.00;1.00;;;;;15.54;75.05;100726.66;5060437;28;45495;-62
2022/11/07 10:06:10;;;;;;;;;1.00;1.00;;;;;15.58;75.14;100730.78;5080545;27;45948;-64
2022/11/07 10:09:14;;;;;;;;;2.00;2.00;;;;;15.60;75.12;100722.66;5099050;27;45536;-63
2022/11/07 10:11:53;;;;;;;;;3.33;2.00;;;;;15.56;75.04;100715.81;5047158;27;46317;-62
2022/11/07 10:14:47;;;;;;;;;5.00;2.00;;;;;15.64;74.80;100729.53;5084334;27;45631;-60
2022/11/07 10:17:19;;;;;;;;;1.33;1.33;;;;;15.71;74.02;100730.78;5076838;28;45773;-63
2022/11/07 10:20:04;;;;;;;;;3.00;2.00;;;;;15.69;73.83;100739.91;5078261;27;45492;-65
2022/11/07 10:22:38;;;;;;;;;2.67;1.33;;;;;15.72;74.40;100732.47;5059195;28;46682;-65
2022/11/07 10:25:12;;;;;;;;;2.33;1.00;;;;;15.73;74.50;100726.13;5076985;28;45913;-66
2022/11/07 10:27:38;;;;;;;;;3.00;1.00;;;;;15.78;73.50;100718.63;5078075;28;45471;-62
2022/11/07 10:30:19;;;;;;;;;5.33;1.67;;;;;15.83;74.26;100729.84;5082215;27;45565;-67
2022/11/07 10:32:57;;;;;;;;;2.00;2.00;;;;;15.86;73.82;100721.56;5075616;27;45273;-61
2022/11/07 10:35:37;;;;;;;;;3.00;1.00;;;;;15.97;73.15;100725.25;5060544;27;45552;-66
2022/11/07 10:38:25;;;;;;;;;4.00;2.67;;;;;15.99;72.63;100723.31;5077043;27;45173;-66
2022/11/07 10:40:52;;;;;;;;;1.00;1.00;;;;;16.00;73.54;100716.97;5069026;27;45323;-59
2022/11/07 10:43:38;;;;;;;;;2.67;2.67;;;;;15.99;72.88;100715.25;5078019;27;45532;-61
2022/11/07 10:46:17;;;;;;;;;2.33;1.67;;;;;16.03;73.58;100719.44;5079569;27;45426;-60
2022/11/07 10:48:57;;;;;;;;;2.00;0.67;;;;;16.01;73.17;100721.34;5074383;27;45394;-64
2022/11/07 10:51:41;;;;;;;;;1.67;1.67;;;;;16.00;73.03;100714.28;5078019;28;45425;-61
2022/11/07 10:54:27;;;;;;;;;1.33;1.00;;;;;16.06;73.43;100716.50;5058067;28;46310;-64
2022/11/07 10:57:08;;;;;;;;;3.00;2.33;;;;;16.13;72.92;100715.91;5039222;28;45369;-63
2022/11/07 10:59:38;;;;;;;;;1.33;1.33;;;;;16.13;72.61;100720.41;5077146;27;45495;-61
2022/11/07 11:02:22;;;;;;;;;2.00;1.67;;;;;16.13;73.02;100717.72;5063347;27;45660;-60
2022/11/07 11:04:51;;;;;;;;;5.00;1.67;;;;;16.09;71.39;100730.53;5040357;28;45479;-60
2022/11/07 11:07:16;;;;;;;;;1.67;1.33;;;;;16.09;72.53;100713.59;5076891;27;45409;-63
2022/11/07 11:09:52;;;;;;;;;4.00;2.33;;;;;16.14;73.25;100716.75;5076581;27;45276;-67
2022/11/07 11:12:29;;;;;;;;;4.33;2.00;;;;;16.15;71.17;100708.63;5057225;28;45480;-65
2022/11/07 11:15:15;;;;;;;;;6.67;2.33;;;;;16.39;71.75;100711.19;5069638;28;46269;-66
2022/11/07 11:17:40;;;;;;;;;2.00;1.33;;;;;16.55;71.02;100704.63;5072360;27;45711;-70
2022/11/07 11:20:22;;;;;;;;;5.00;3.33;;;;;16.72;71.31;100690.75;5081418;27;45534;-67
2022/11/07 11:22:47;;;;;;;;;3.33;3.33;;;;;16.84;69.86;100681.72;5075187;27;45780;-62
2022/11/07 11:25:19;;;;;;;;;5.00;3.00;;;;;17.06;70.13;100683.50;5074552;27;47126;-58
2022/11/07 11:27:47;;;;;;;;;4.00;4.00;;;;;17.06;68.87;100684.38;5075710;27;45566;-61
2022/11/07 11:30:20;;;;;;;;;2.67;2.33;;;;;16.96;67.65;100680.72;5069915;27;45366;-62
2022/11/07 11:33:02;;;;;;;;;2.67;2.67;;;;;16.90;68.78;100705.38;5043637;28;45628;-59
2022/11/07 11:35:52;;;;;;;;;4.00;2.00;;;;;16.91;68.87;100696.34;5066761;27;45488;-59
2022/11/07 11:38:38;;;;;;;;;3.33;2.00;;;;;16.87;68.77;100689.50;5065139;27;45486;-62
2022/11/07 11:41:06;;;;;;;;;0.67;0.67;;;;;16.95;68.20;100681.69;5077242;28;45278;-64